sensor_id;sensor_type;location;lat;lon;timestamp;P1;durP1;ratioP1;P2;durP2;ratioP2
18929;SDS011;43305;52.186;5.598;2023-12-20T00:02:07;19.02;;;2.53;;
18929;SDS011;43305;52.186;5.598;2023-12-20T00:04:34;11.45;;;2.05;;
18929;SDS011;43305;52.186;5.598;2023-12-20T00:07:01;18.60;;;2.17;;
18929;SDS011;43305;52.186;5.598;2023-12-20T00:09:29;21.50;;;2.65;;
18929;SDS011;43305;52.186;5.598;2023-12-20T00:11:56;15.50;;;2.42;;
18929;SDS011;43305;52.186;5.598;2023-12-20T00:14:23;17.48;;;2.13;;
18929;SDS011;43305;52.186;5.598;2023-12-20T00:16:49;27.33;;;2.85;;
18929;SDS011;43305;52.186;5.598;2023-12-20T00:19:17;23.45;;;2.42;;
18929;SDS011;43305;52.186;5.598;2023-12-20T00:21:44;19.58;;;2.65;;
18929;SDS011;43305;52.186;5.598;2023-12-20T00:24:11;16.15;;;2.78;;
18929;SDS011;43305;52.186;5.598;2023-12-20T00:26:41;13.82;;;2.25;;
18929;SDS011;43305;52.186;5.598;2023-12-20T00:29:08;17.83;;;2.20;;
18929;SDS011;43305;52.186;5.598;2023-12-20T00:31:35;20.80;;;2.47;;
18929;SDS011;43305;52.186;5.598;2023-12-20T00:34:02;15.85;;;2.35;;
18929;SDS011;43305;52.186;5.598;2023-12-20T00:36:29;25.35;;;2.42;;
18929;SDS011;43305;52.186;5.598;2023-12-20T00:38:55;17.75;;;2.10;;
18929;SDS011;43305;52.186;5.598;2023-12-20T00:41:22;23.92;;;2.60;;
18929;SDS011;43305;52.186;5.598;2023-12-20T00:43:53;20.65;;;2.08;;
18929;SDS011;43305;52.186;5.598;2023-12-20T00:46:19;23.25;;;2.58;;
18929;SDS011;43305;52.186;5.598;2023-12-20T00:48:48;17.83;;;2.28;;
18929;SDS011;43305;52.186;5.598;2023-12-20T00:51:16;19.83;;;2.60;;
18929;SDS011;43305;52.186;5.598;2023-12-20T00:53:43;15.52;;;2.13;;
18929;SDS011;43305;52.186;5.598;2023-12-20T00:56:10;18.17;;;2.33;;
18929;SDS011;43305;52.186;5.598;2023-12-20T00:58:36;14.48;;;2.28;;
18929;SDS011;43305;52.186;5.598;2023-12-20T01:01:04;20.50;;;2.47;;
18929;SDS011;43305;52.186;5.598;2023-12-20T01:03:31;22.88;;;2.70;;
18929;SDS011;43305;52.186;5.598;2023-12-20T01:05:56;13.13;;;2.45;;
18929;SDS011;43305;52.186;5.598;2023-12-20T01:08:26;16.98;;;2.42;;
18929;SDS011;43305;52.186;5.598;2023-12-20T01:10:53;18.05;;;2.45;;
18929;SDS011;43305;52.186;5.598;2023-12-20T01:13:20;13.38;;;2.00;;
18929;SDS011;43305;52.186;5.598;2023-12-20T01:15:48;16.95;;;2.03;;
18929;SDS011;43305;52.186;5.598;2023-12-20T01:18:16;16.90;;;2.50;;
18929;SDS011;43305;52.186;5.598;2023-12-20T01:20:43;18.23;;;2.38;;
18929;SDS011;43305;52.186;5.598;2023-12-20T01:23:09;14.35;;;2.13;;
18929;SDS011;43305;52.186;5.598;2023-12-20T01:25:36;15.00;;;2.30;;
18929;SDS011;43305;52.186;5.598;2023-12-20T01:28:06;16.30;;;2.55;;
18929;SDS011;43305;52.186;5.598;2023-12-20T01:30:32;21.23;;;2.20;;
18929;SDS011;43305;52.186;5.598;2023-12-20T01:32:59;13.20;;;2.05;;
18929;SDS011;43305;52.186;5.598;2023-12-20T01:35:28;17.67;;;2.35;;
18929;SDS011;43305;52.186;5.598;2023-12-20T01:37:55;26.35;;;2.38;;
18929;SDS011;43305;52.186;5.598;2023-12-20T01:40:22;22.42;;;2.45;;
18929;SDS011;43305;52.186;5.598;2023-12-20T01:42:57;26.30;;;3.92;;
18929;SDS011;43305;52.186;5.598;2023-12-20T01:45:24;15.52;;;2.55;;
18929;SDS011;43305;52.186;5.598;2023-12-20T01:47:51;15.50;;;2.25;;
18929;SDS011;43305;52.186;5.598;2023-12-20T01:50:18;14.85;;;2.28;;
18929;SDS011;43305;52.186;5.598;2023-12-20T01:52:48;18.02;;;2.58;;
18929;SDS011;43305;52.186;5.598;2023-12-20T01:55:17;23.00;;;2.42;;
18929;SDS011;43305;52.186;5.598;2023-12-20T01:57:44;13.55;;;2.45;;
18929;SDS011;43305;52.186;5.598;2023-12-20T02:00:12;16.33;;;2.20;;
18929;SDS011;43305;52.186;5.598;2023-12-20T02:02:40;16.33;;;2.13;;
18929;SDS011;43305;52.186;5.598;2023-12-20T02:05:09;23.27;;;2.47;;
18929;SDS011;43305;52.186;5.598;2023-12-20T02:07:36;12.80;;;2.05;;
18929;SDS011;43305;52.186;5.598;2023-12-20T02:10:04;14.13;;;2.47;;
18929;SDS011;43305;52.186;5.598;2023-12-20T02:12:31;23.77;;;2.60;;
18929;SDS011;43305;52.186;5.598;2023-12-20T02:14:58;17.30;;;3.28;;
18929;SDS011;43305;52.186;5.598;2023-12-20T02:17:25;14.25;;;2.28;;
18929;SDS011;43305;52.186;5.598;2023-12-20T02:19:53;19.20;;;2.72;;
18929;SDS011;43305;52.186;5.598;2023-12-20T02:22:21;21.52;;;2.60;;
18929;SDS011;43305;52.186;5.598;2023-12-20T02:24:48;20.77;;;2.90;;
18929;SDS011;43305;52.186;5.598;2023-12-20T02:27:15;18.70;;;2.13;;
18929;SDS011;43305;52.186;5.598;2023-12-20T02:29:43;18.73;;;3.10;;
18929;SDS011;43305;52.186;5.598;2023-12-20T02:32:11;24.85;;;2.78;;
18929;SDS011;43305;52.186;5.598;2023-12-20T02:34:37;20.23;;;2.60;;
18929;SDS011;43305;52.186;5.598;2023-12-20T02:37:04;20.35;;;2.72;;
18929;SDS011;43305;52.186;5.598;2023-12-20T02:39:32;23.80;;;2.50;;
18929;SDS011;43305;52.186;5.598;2023-12-20T02:41:59;27.98;;;2.80;;
18929;SDS011;43305;52.186;5.598;2023-12-20T02:44:26;22.48;;;2.58;;
18929;SDS011;43305;52.186;5.598;2023-12-20T02:46:53;21.10;;;2.60;;
18929;SDS011;43305;52.186;5.598;2023-12-20T02:49:19;20.52;;;3.00;;
18929;SDS011;43305;52.186;5.598;2023-12-20T02:51:49;22.20;;;3.03;;
18929;SDS011;43305;52.186;5.598;2023-12-20T02:54:18;20.70;;;2.97;;
18929;SDS011;43305;52.186;5.598;2023-12-20T02:56:46;24.25;;;2.88;;
18929;SDS011;43305;52.186;5.598;2023-12-20T02:59:14;25.20;;;2.90;;
18929;SDS011;43305;52.186;5.598;2023-12-20T03:01:41;22.70;;;3.40;;
18929;SDS011;43305;52.186;5.598;2023-12-20T03:04:08;15.52;;;2.60;;
18929;SDS011;43305;52.186;5.598;2023-12-20T03:06:35;20.25;;;2.90;;
18929;SDS011;43305;52.186;5.598;2023-12-20T03:09:02;21.20;;;2.80;;
18929;SDS011;43305;52.186;5.598;2023-12-20T03:11:29;20.42;;;2.95;;
18929;SDS011;43305;52.186;5.598;2023-12-20T03:13:57;23.10;;;3.08;;
18929;SDS011;43305;52.186;5.598;2023-12-20T03:16:24;24.92;;;2.78;;
18929;SDS011;43305;52.186;5.598;2023-12-20T03:18:51;22.55;;;2.55;;
18929;SDS011;43305;52.186;5.598;2023-12-20T03:21:18;26.83;;;3.22;;
18929;SDS011;43305;52.186;5.598;2023-12-20T03:23:44;30.25;;;3.13;;
18929;SDS011;43305;52.186;5.598;2023-12-20T03:26:11;23.83;;;2.95;;
18929;SDS011;43305;52.186;5.598;2023-12-20T03:28:39;22.65;;;3.03;;
18929;SDS011;43305;52.186;5.598;2023-12-20T03:31:07;31.08;;;3.83;;
18929;SDS011;43305;52.186;5.598;2023-12-20T03:33:35;20.13;;;3.22;;
18929;SDS011;43305;52.186;5.598;2023-12-20T03:36:02;25.15;;;3.15;;
18929;SDS011;43305;52.186;5.598;2023-12-20T03:38:29;31.05;;;3.53;;
18929;SDS011;43305;52.186;5.598;2023-12-20T03:40:56;22.73;;;3.47;;
18929;SDS011;43305;52.186;5.598;2023-12-20T03:43:23;25.77;;;3.50;;
18929;SDS011;43305;52.186;5.598;2023-12-20T03:45:50;26.10;;;3.20;;
18929;SDS011;43305;52.186;5.598;2023-12-20T03:48:23;25.17;;;3.60;;
18929;SDS011;43305;52.186;5.598;2023-12-20T03:50:53;27.60;;;3.78;;
18929;SDS011;43305;52.186;5.598;2023-12-20T03:53:20;33.53;;;3.60;;
18929;SDS011;43305;52.186;5.598;2023-12-20T03:55:49;35.67;;;4.03;;
18929;SDS011;43305;52.186;5.598;2023-12-20T03:58:19;24.63;;;3.58;;
18929;SDS011;43305;52.186;5.598;2023-12-20T04:00:48;30.48;;;3.70;;
18929;SDS011;43305;52.186;5.598;2023-12-20T04:03:17;25.05;;;3.40;;
18929;SDS011;43305;52.186;5.598;2023-12-20T04:05:46;32.22;;;4.07;;
18929;SDS011;43305;52.186;5.598;2023-12-20T04:08:12;24.15;;;3.30;;
18929;SDS011;43305;52.186;5.598;2023-12-20T04:10:39;30.30;;;3.95;;
18929;SDS011;43305;52.186;5.598;2023-12-20T04:13:06;30.63;;;3.67;;
18929;SDS011;43305;52.186;5.598;2023-12-20T04:15:33;34.03;;;3.63;;
18929;SDS011;43305;52.186;5.598;2023-12-20T04:17:59;24.08;;;3.05;;
18929;SDS011;43305;52.186;5.598;2023-12-20T04:20:26;31.23;;;3.35;;
18929;SDS011;43305;52.186;5.598;2023-12-20T04:22:54;26.05;;;2.90;;
18929;SDS011;43305;52.186;5.598;2023-12-20T04:25:21;24.13;;;3.25;;
18929;SDS011;43305;52.186;5.598;2023-12-20T04:27:48;23.90;;;2.70;;
18929;SDS011;43305;52.186;5.598;2023-12-20T04:30:14;25.13;;;3.35;;
18929;SDS011;43305;52.186;5.598;2023-12-20T04:32:41;19.35;;;3.35;;
18929;SDS011;43305;52.186;5.598;2023-12-20T04:35:08;31.60;;;3.88;;
18929;SDS011;43305;52.186;5.598;2023-12-20T04:37:35;33.75;;;3.30;;
18929;SDS011;43305;52.186;5.598;2023-12-20T04:40:06;28.30;;;3.30;;
18929;SDS011;43305;52.186;5.598;2023-12-20T04:42:34;26.58;;;3.35;;
18929;SDS011;43305;52.186;5.598;2023-12-20T04:45:01;25.10;;;3.42;;
18929;SDS011;43305;52.186;5.598;2023-12-20T04:47:28;25.30;;;3.03;;
18929;SDS011;43305;52.186;5.598;2023-12-20T04:49:55;26.42;;;3.05;;
18929;SDS011;43305;52.186;5.598;2023-12-20T04:52:22;28.60;;;3.05;;
18929;SDS011;43305;52.186;5.598;2023-12-20T04:54:49;26.42;;;2.97;;
18929;SDS011;43305;52.186;5.598;2023-12-20T04:57:19;24.05;;;2.88;;
18929;SDS011;43305;52.186;5.598;2023-12-20T04:59:48;20.40;;;2.90;;
18929;SDS011;43305;52.186;5.598;2023-12-20T05:02:16;22.45;;;3.00;;
18929;SDS011;43305;52.186;5.598;2023-12-20T05:04:43;22.08;;;3.13;;
18929;SDS011;43305;52.186;5.598;2023-12-20T05:07:10;24.23;;;3.10;;
18929;SDS011;43305;52.186;5.598;2023-12-20T05:09:36;22.95;;;2.92;;
18929;SDS011;43305;52.186;5.598;2023-12-20T05:12:03;18.50;;;3.20;;
18929;SDS011;43305;52.186;5.598;2023-12-20T05:14:33;20.63;;;3.10;;
18929;SDS011;43305;52.186;5.598;2023-12-20T05:16:59;26.00;;;3.35;;
18929;SDS011;43305;52.186;5.598;2023-12-20T05:19:28;23.98;;;3.75;;
18929;SDS011;43305;52.186;5.598;2023-12-20T05:21:55;24.27;;;3.53;;
18929;SDS011;43305;52.186;5.598;2023-12-20T05:24:22;19.50;;;3.50;;
18929;SDS011;43305;52.186;5.598;2023-12-20T05:26:49;20.70;;;3.40;;
18929;SDS011;43305;52.186;5.598;2023-12-20T05:29:19;22.40;;;3.42;;
18929;SDS011;43305;52.186;5.598;2023-12-20T05:31:53;21.42;;;3.03;;
18929;SDS011;43305;52.186;5.598;2023-12-20T05:34:20;21.17;;;3.13;;
18929;SDS011;43305;52.186;5.598;2023-12-20T05:36:49;22.92;;;3.10;;
18929;SDS011;43305;52.186;5.598;2023-12-20T05:39:17;22.63;;;3.15;;
18929;SDS011;43305;52.186;5.598;2023-12-20T05:41:44;22.55;;;3.03;;
18929;SDS011;43305;52.186;5.598;2023-12-20T05:44:11;25.55;;;3.58;;
18929;SDS011;43305;52.186;5.598;2023-12-20T05:46:37;18.10;;;2.58;;
18929;SDS011;43305;52.186;5.598;2023-12-20T05:49:06;18.67;;;3.13;;
18929;SDS011;43305;52.186;5.598;2023-12-20T05:51:33;29.50;;;3.10;;
18929;SDS011;43305;52.186;5.598;2023-12-20T05:54:00;24.98;;;3.13;;
18929;SDS011;43305;52.186;5.598;2023-12-20T05:56:26;19.75;;;3.22;;
18929;SDS011;43305;52.186;5.598;2023-12-20T05:58:53;23.23;;;3.50;;
18929;SDS011;43305;52.186;5.598;2023-12-20T06:01:23;22.67;;;2.83;;
18929;SDS011;43305;52.186;5.598;2023-12-20T06:03:53;26.33;;;3.08;;
18929;SDS011;43305;52.186;5.598;2023-12-20T06:06:21;26.98;;;3.20;;
18929;SDS011;43305;52.186;5.598;2023-12-20T06:08:48;22.70;;;3.38;;
18929;SDS011;43305;52.186;5.598;2023-12-20T06:11:15;25.02;;;2.85;;
18929;SDS011;43305;52.186;5.598;2023-12-20T06:13:41;20.98;;;3.17;;
18929;SDS011;43305;52.186;5.598;2023-12-20T06:16:08;19.55;;;3.00;;
18929;SDS011;43305;52.186;5.598;2023-12-20T06:18:35;19.92;;;2.65;;
18929;SDS011;43305;52.186;5.598;2023-12-20T06:21:02;18.77;;;3.30;;
18929;SDS011;43305;52.186;5.598;2023-12-20T06:23:34;24.40;;;3.17;;
18929;SDS011;43305;52.186;5.598;2023-12-20T06:26:01;24.85;;;3.00;;
18929;SDS011;43305;52.186;5.598;2023-12-20T06:28:27;21.25;;;2.60;;
18929;SDS011;43305;52.186;5.598;2023-12-20T06:30:54;16.50;;;3.08;;
18929;SDS011;43305;52.186;5.598;2023-12-20T06:33:22;25.13;;;3.55;;
18929;SDS011;43305;52.186;5.598;2023-12-20T06:35:49;24.30;;;3.63;;
18929;SDS011;43305;52.186;5.598;2023-12-20T06:38:18;25.05;;;3.20;;
18929;SDS011;43305;52.186;5.598;2023-12-20T06:40:47;23.88;;;3.00;;
18929;SDS011;43305;52.186;5.598;2023-12-20T06:43:14;25.73;;;3.67;;
18929;SDS011;43305;52.186;5.598;2023-12-20T06:45:41;27.08;;;3.25;;
18929;SDS011;43305;52.186;5.598;2023-12-20T06:48:08;25.45;;;2.80;;
18929;SDS011;43305;52.186;5.598;2023-12-20T06:50:37;27.73;;;3.10;;
18929;SDS011;43305;52.186;5.598;2023-12-20T06:53:05;20.58;;;3.13;;
18929;SDS011;43305;52.186;5.598;2023-12-20T06:55:32;20.90;;;3.05;;
18929;SDS011;43305;52.186;5.598;2023-12-20T06:58:01;19.00;;;2.40;;
18929;SDS011;43305;52.186;5.598;2023-12-20T07:00:29;30.08;;;3.10;;
18929;SDS011;43305;52.186;5.598;2023-12-20T07:02:59;21.25;;;2.60;;
18929;SDS011;43305;52.186;5.598;2023-12-20T07:05:26;16.73;;;2.55;;
18929;SDS011;43305;52.186;5.598;2023-12-20T07:07:53;19.08;;;3.00;;
18929;SDS011;43305;52.186;5.598;2023-12-20T07:10:20;20.05;;;3.22;;
18929;SDS011;43305;52.186;5.598;2023-12-20T07:12:50;23.05;;;3.10;;
18929;SDS011;43305;52.186;5.598;2023-12-20T07:15:21;21.33;;;2.88;;
18929;SDS011;43305;52.186;5.598;2023-12-20T07:17:48;29.15;;;3.53;;
18929;SDS011;43305;52.186;5.598;2023-12-20T07:20:15;28.27;;;3.38;;
18929;SDS011;43305;52.186;5.598;2023-12-20T07:22:42;17.80;;;3.10;;
18929;SDS011;43305;52.186;5.598;2023-12-20T07:25:09;24.27;;;2.80;;
18929;SDS011;43305;52.186;5.598;2023-12-20T07:27:35;23.55;;;3.13;;
18929;SDS011;43305;52.186;5.598;2023-12-20T07:30:02;22.88;;;3.17;;
18929;SDS011;43305;52.186;5.598;2023-12-20T07:32:31;21.65;;;3.03;;
18929;SDS011;43305;52.186;5.598;2023-12-20T07:34:58;20.23;;;3.17;;
18929;SDS011;43305;52.186;5.598;2023-12-20T07:37:25;22.40;;;3.15;;
18929;SDS011;43305;52.186;5.598;2023-12-20T07:39:52;22.55;;;2.97;;
18929;SDS011;43305;52.186;5.598;2023-12-20T07:42:21;17.70;;;2.88;;
18929;SDS011;43305;52.186;5.598;2023-12-20T07:44:48;21.50;;;2.90;;
18929;SDS011;43305;52.186;5.598;2023-12-20T07:47:15;23.23;;;3.90;;
18929;SDS011;43305;52.186;5.598;2023-12-20T07:49:47;28.58;;;3.03;;
18929;SDS011;43305;52.186;5.598;2023-12-20T07:52:14;24.45;;;3.33;;
18929;SDS011;43305;52.186;5.598;2023-12-20T07:54:41;29.60;;;5.75;;
18929;SDS011;43305;52.186;5.598;2023-12-20T07:57:08;43.28;;;8.63;;
18929;SDS011;43305;52.186;5.598;2023-12-20T07:59:35;26.60;;;4.95;;
18929;SDS011;43305;52.186;5.598;2023-12-20T08:02:02;32.03;;;6.15;;
18929;SDS011;43305;52.186;5.598;2023-12-20T08:04:31;52.80;;;9.73;;
18929;SDS011;43305;52.186;5.598;2023-12-20T08:07:01;38.50;;;5.85;;
18929;SDS011;43305;52.186;5.598;2023-12-20T08:09:29;28.27;;;5.72;;
18929;SDS011;43305;52.186;5.598;2023-12-20T08:11:59;28.98;;;5.47;;
18929;SDS011;43305;52.186;5.598;2023-12-20T08:14:26;25.25;;;3.78;;
18929;SDS011;43305;52.186;5.598;2023-12-20T08:16:52;23.35;;;2.90;;
18929;SDS011;43305;52.186;5.598;2023-12-20T08:19:19;25.65;;;3.97;;
18929;SDS011;43305;52.186;5.598;2023-12-20T08:21:48;26.92;;;3.17;;
18929;SDS011;43305;52.186;5.598;2023-12-20T08:24:16;25.63;;;3.45;;
18929;SDS011;43305;52.186;5.598;2023-12-20T08:26:43;27.95;;;3.10;;
18929;SDS011;43305;52.186;5.598;2023-12-20T08:29:12;30.40;;;3.22;;
18929;SDS011;43305;52.186;5.598;2023-12-20T08:31:39;23.55;;;3.35;;
18929;SDS011;43305;52.186;5.598;2023-12-20T08:34:06;25.52;;;3.60;;
18929;SDS011;43305;52.186;5.598;2023-12-20T08:36:32;26.45;;;3.75;;
18929;SDS011;43305;52.186;5.598;2023-12-20T08:38:59;23.80;;;3.75;;
18929;SDS011;43305;52.186;5.598;2023-12-20T08:41:28;23.45;;;3.53;;
18929;SDS011;43305;52.186;5.598;2023-12-20T08:43:54;21.20;;;3.13;;
18929;SDS011;43305;52.186;5.598;2023-12-20T08:46:24;25.67;;;3.78;;
18929;SDS011;43305;52.186;5.598;2023-12-20T08:48:51;25.02;;;3.38;;
18929;SDS011;43305;52.186;5.598;2023-12-20T08:51:18;25.75;;;3.38;;
18929;SDS011;43305;52.186;5.598;2023-12-20T08:53:46;30.77;;;3.85;;
18929;SDS011;43305;52.186;5.598;2023-12-20T08:56:14;24.77;;;4.25;;
18929;SDS011;43305;52.186;5.598;2023-12-20T08:58:43;24.67;;;3.95;;
18929;SDS011;43305;52.186;5.598;2023-12-20T09:01:10;21.45;;;3.58;;
18929;SDS011;43305;52.186;5.598;2023-12-20T09:03:36;26.67;;;3.75;;
18929;SDS011;43305;52.186;5.598;2023-12-20T09:06:03;32.08;;;3.75;;
18929;SDS011;43305;52.186;5.598;2023-12-20T09:08:30;26.13;;;4.07;;
18929;SDS011;43305;52.186;5.598;2023-12-20T09:10:57;21.30;;;3.25;;
18929;SDS011;43305;52.186;5.598;2023-12-20T09:13:24;26.38;;;3.65;;
18929;SDS011;43305;52.186;5.598;2023-12-20T09:15:54;22.55;;;3.15;;
18929;SDS011;43305;52.186;5.598;2023-12-20T09:18:24;26.77;;;3.55;;
18929;SDS011;43305;52.186;5.598;2023-12-20T09:20:51;23.00;;;2.95;;
18929;SDS011;43305;52.186;5.598;2023-12-20T09:23:18;26.13;;;3.65;;
18929;SDS011;43305;52.186;5.598;2023-12-20T09:25:45;28.17;;;3.80;;
18929;SDS011;43305;52.186;5.598;2023-12-20T09:28:12;26.02;;;3.47;;
18929;SDS011;43305;52.186;5.598;2023-12-20T09:30:38;31.75;;;4.22;;
18929;SDS011;43305;52.186;5.598;2023-12-20T09:33:07;31.25;;;4.13;;
18929;SDS011;43305;52.186;5.598;2023-12-20T09:35:34;26.83;;;3.58;;
18929;SDS011;43305;52.186;5.598;2023-12-20T09:38:01;30.20;;;3.63;;
18929;SDS011;43305;52.186;5.598;2023-12-20T09:40:27;22.45;;;3.00;;
18929;SDS011;43305;52.186;5.598;2023-12-20T09:42:58;23.60;;;3.97;;
18929;SDS011;43305;52.186;5.598;2023-12-20T09:45:30;26.92;;;3.72;;
18929;SDS011;43305;52.186;5.598;2023-12-20T09:47:58;21.60;;;2.88;;
18929;SDS011;43305;52.186;5.598;2023-12-20T09:50:26;23.25;;;3.00;;
18929;SDS011;43305;52.186;5.598;2023-12-20T09:52:55;24.10;;;3.30;;
18929;SDS011;43305;52.186;5.598;2023-12-20T09:55:24;21.58;;;3.17;;
18929;SDS011;43305;52.186;5.598;2023-12-20T09:57:54;30.27;;;3.63;;
18929;SDS011;43305;52.186;5.598;2023-12-20T10:00:24;22.33;;;3.78;;
18929;SDS011;43305;52.186;5.598;2023-12-20T10:02:56;19.17;;;3.50;;
18929;SDS011;43305;52.186;5.598;2023-12-20T10:05:26;26.65;;;2.90;;
18929;SDS011;43305;52.186;5.598;2023-12-20T10:07:55;27.45;;;3.67;;
18929;SDS011;43305;52.186;5.598;2023-12-20T10:10:22;26.25;;;3.47;;
18929;SDS011;43305;52.186;5.598;2023-12-20T10:13:00;23.58;;;3.40;;
18929;SDS011;43305;52.186;5.598;2023-12-20T10:15:28;28.13;;;3.80;;
18929;SDS011;43305;52.186;5.598;2023-12-20T10:17:56;20.10;;;3.17;;
18929;SDS011;43305;52.186;5.598;2023-12-20T10:20:23;26.50;;;3.10;;
18929;SDS011;43305;52.186;5.598;2023-12-20T11:08:58;18.77;;;2.70;;
18929;SDS011;43305;52.186;5.598;2023-12-20T11:11:35;20.20;;;2.67;;
18929;SDS011;43305;52.186;5.598;2023-12-20T11:14:12;18.75;;;2.67;;
18929;SDS011;43305;52.186;5.598;2023-12-20T11:16:44;18.23;;;2.60;;
18929;SDS011;43305;52.186;5.598;2023-12-20T11:19:12;18.75;;;2.60;;
18929;SDS011;43305;52.186;5.598;2023-12-20T11:21:39;21.20;;;2.63;;
18929;SDS011;43305;52.186;5.598;2023-12-20T11:24:07;18.85;;;2.70;;
18929;SDS011;43305;52.186;5.598;2023-12-20T11:26:35;24.10;;;3.25;;
18929;SDS011;43305;52.186;5.598;2023-12-20T11:31:59;21.70;;;2.90;;
18929;SDS011;43305;52.186;5.598;2023-12-20T11:34:27;17.08;;;2.40;;
18929;SDS011;43305;52.186;5.598;2023-12-20T12:42:13;15.25;;;2.42;;
18929;SDS011;43305;52.186;5.598;2023-12-20T12:44:40;19.73;;;2.63;;
18929;SDS011;43305;52.186;5.598;2023-12-20T12:47:07;18.08;;;2.55;;
18929;SDS011;43305;52.186;5.598;2023-12-20T12:49:34;14.35;;;2.53;;
18929;SDS011;43305;52.186;5.598;2023-12-20T12:52:01;22.33;;;2.70;;
18929;SDS011;43305;52.186;5.598;2023-12-20T12:54:28;17.05;;;2.17;;
18929;SDS011;43305;52.186;5.598;2023-12-20T12:56:55;20.00;;;2.45;;
18929;SDS011;43305;52.186;5.598;2023-12-20T12:59:24;14.82;;;1.88;;
18929;SDS011;43305;52.186;5.598;2023-12-20T13:01:51;21.05;;;3.45;;
18929;SDS011;43305;52.186;5.598;2023-12-20T13:04:18;19.55;;;3.45;;
18929;SDS011;43305;52.186;5.598;2023-12-20T13:06:45;14.82;;;2.13;;
18929;SDS011;43305;52.186;5.598;2023-12-20T13:09:13;21.58;;;3.38;;
18929;SDS011;43305;52.186;5.598;2023-12-20T13:11:40;18.70;;;2.00;;
18929;SDS011;43305;52.186;5.598;2023-12-20T13:14:07;19.33;;;2.58;;
18929;SDS011;43305;52.186;5.598;2023-12-20T13:16:40;14.43;;;2.20;;
18929;SDS011;43305;52.186;5.598;2023-12-20T13:19:07;14.57;;;2.60;;
18929;SDS011;43305;52.186;5.598;2023-12-20T13:21:35;19.85;;;2.45;;
18929;SDS011;43305;52.186;5.598;2023-12-20T13:24:02;17.33;;;2.50;;
18929;SDS011;43305;52.186;5.598;2023-12-20T13:26:29;24.73;;;2.92;;
18929;SDS011;43305;52.186;5.598;2023-12-20T13:28:56;18.08;;;2.53;;
18929;SDS011;43305;52.186;5.598;2023-12-20T13:31:22;19.15;;;2.70;;
18929;SDS011;43305;52.186;5.598;2023-12-20T13:33:51;18.08;;;2.58;;
18929;SDS011;43305;52.186;5.598;2023-12-20T13:36:21;17.10;;;2.78;;
18929;SDS011;43305;52.186;5.598;2023-12-20T13:38:47;21.35;;;3.03;;
18929;SDS011;43305;52.186;5.598;2023-12-20T13:41:21;15.68;;;2.80;;
18929;SDS011;43305;52.186;5.598;2023-12-20T13:43:50;16.13;;;2.40;;
18929;SDS011;43305;52.186;5.598;2023-12-20T13:46:17;13.77;;;2.33;;
18929;SDS011;43305;52.186;5.598;2023-12-20T13:48:46;15.27;;;2.25;;
18929;SDS011;43305;52.186;5.598;2023-12-20T13:51:17;20.88;;;3.20;;
18929;SDS011;43305;52.186;5.598;2023-12-20T13:53:47;16.42;;;2.28;;
18929;SDS011;43305;52.186;5.598;2023-12-20T13:56:17;18.98;;;2.50;;
18929;SDS011;43305;52.186;5.598;2023-12-20T13:58:45;17.52;;;2.50;;
18929;SDS011;43305;52.186;5.598;2023-12-20T14:01:12;20.67;;;2.38;;
18929;SDS011;43305;52.186;5.598;2023-12-20T14:03:39;17.77;;;2.53;;
18929;SDS011;43305;52.186;5.598;2023-12-20T14:06:06;18.52;;;2.42;;
18929;SDS011;43305;52.186;5.598;2023-12-20T14:08:35;20.25;;;2.95;;
18929;SDS011;43305;52.186;5.598;2023-12-20T14:11:02;20.52;;;2.47;;
18929;SDS011;43305;52.186;5.598;2023-12-20T14:13:29;16.27;;;2.15;;
18929;SDS011;43305;52.186;5.598;2023-12-20T14:15:56;19.70;;;2.63;;
18929;SDS011;43305;52.186;5.598;2023-12-20T14:18:26;16.05;;;2.97;;
18929;SDS011;43305;52.186;5.598;2023-12-20T14:20:53;16.27;;;2.28;;
18929;SDS011;43305;52.186;5.598;2023-12-20T14:23:20;16.35;;;2.75;;
18929;SDS011;43305;52.186;5.598;2023-12-20T14:25:49;13.43;;;2.33;;
18929;SDS011;43305;52.186;5.598;2023-12-20T14:28:16;14.05;;;2.65;;
18929;SDS011;43305;52.186;5.598;2023-12-20T14:30:43;15.13;;;2.50;;
18929;SDS011;43305;52.186;5.598;2023-12-20T14:33:09;14.45;;;2.45;;
18929;SDS011;43305;52.186;5.598;2023-12-20T14:35:36;19.70;;;2.50;;
18929;SDS011;43305;52.186;5.598;2023-12-20T14:38:03;16.85;;;2.38;;
18929;SDS011;43305;52.186;5.598;2023-12-20T14:40:31;20.13;;;2.88;;
18929;SDS011;43305;52.186;5.598;2023-12-20T14:42:59;16.65;;;2.55;;
18929;SDS011;43305;52.186;5.598;2023-12-20T14:45:26;22.48;;;3.10;;
18929;SDS011;43305;52.186;5.598;2023-12-20T14:47:53;15.55;;;2.85;;
18929;SDS011;43305;52.186;5.598;2023-12-20T14:50:20;19.02;;;2.47;;
18929;SDS011;43305;52.186;5.598;2023-12-20T14:52:47;12.73;;;2.00;;
18929;SDS011;43305;52.186;5.598;2023-12-20T14:55:19;17.30;;;2.35;;
18929;SDS011;43305;52.186;5.598;2023-12-20T14:57:46;20.73;;;2.70;;
18929;SDS011;43305;52.186;5.598;2023-12-20T15:00:17;13.77;;;2.50;;
18929;SDS011;43305;52.186;5.598;2023-12-20T15:02:44;17.40;;;2.50;;
18929;SDS011;43305;52.186;5.598;2023-12-20T15:05:12;21.88;;;2.90;;
18929;SDS011;43305;52.186;5.598;2023-12-20T15:07:45;18.25;;;2.80;;
18929;SDS011;43305;52.186;5.598;2023-12-20T15:10:13;14.55;;;2.40;;
18929;SDS011;43305;52.186;5.598;2023-12-20T15:12:41;14.10;;;2.25;;
18929;SDS011;43305;52.186;5.598;2023-12-20T15:15:11;13.52;;;2.38;;
18929;SDS011;43305;52.186;5.598;2023-12-20T15:17:42;13.98;;;3.05;;
18929;SDS011;43305;52.186;5.598;2023-12-20T15:20:12;18.85;;;2.40;;
18929;SDS011;43305;52.186;5.598;2023-12-20T15:22:41;22.48;;;4.05;;
18929;SDS011;43305;52.186;5.598;2023-12-20T15:25:10;19.80;;;3.30;;
18929;SDS011;43305;52.186;5.598;2023-12-20T15:27:44;17.83;;;4.30;;
18929;SDS011;43305;52.186;5.598;2023-12-20T15:30:14;15.73;;;2.42;;
18929;SDS011;43305;52.186;5.598;2023-12-20T15:32:45;19.33;;;2.60;;
18929;SDS011;43305;52.186;5.598;2023-12-20T15:35:12;21.15;;;3.40;;
18929;SDS011;43305;52.186;5.598;2023-12-20T15:37:39;22.70;;;3.17;;
18929;SDS011;43305;52.186;5.598;2023-12-20T15:40:07;13.70;;;2.30;;
18929;SDS011;43305;52.186;5.598;2023-12-20T15:42:35;24.05;;;3.13;;
18929;SDS011;43305;52.186;5.598;2023-12-20T15:45:03;24.80;;;5.32;;
18929;SDS011;43305;52.186;5.598;2023-12-20T15:47:31;22.00;;;3.33;;
18929;SDS011;43305;52.186;5.598;2023-12-20T15:50:00;19.60;;;2.75;;
18929;SDS011;43305;52.186;5.598;2023-12-20T15:52:27;10.65;;;2.33;;
18929;SDS011;43305;52.186;5.598;2023-12-20T15:54:53;20.80;;;2.67;;
18929;SDS011;43305;52.186;5.598;2023-12-20T15:57:20;16.63;;;2.83;;
18929;SDS011;43305;52.186;5.598;2023-12-20T15:59:47;19.25;;;2.90;;
18929;SDS011;43305;52.186;5.598;2023-12-20T16:02:15;17.98;;;2.40;;
18929;SDS011;43305;52.186;5.598;2023-12-20T16:04:42;20.80;;;2.70;;
18929;SDS011;43305;52.186;5.598;2023-12-20T16:07:13;19.40;;;2.70;;
18929;SDS011;43305;52.186;5.598;2023-12-20T16:09:40;16.88;;;3.08;;
18929;SDS011;43305;52.186;5.598;2023-12-20T16:12:07;20.23;;;2.90;;
18929;SDS011;43305;52.186;5.598;2023-12-20T16:14:35;15.25;;;2.72;;
18929;SDS011;43305;52.186;5.598;2023-12-20T16:17:03;15.88;;;2.65;;
18929;SDS011;43305;52.186;5.598;2023-12-20T16:19:30;15.30;;;2.85;;
18929;SDS011;43305;52.186;5.598;2023-12-20T16:21:57;15.10;;;2.65;;
18929;SDS011;43305;52.186;5.598;2023-12-20T16:24:26;19.20;;;2.75;;
18929;SDS011;43305;52.186;5.598;2023-12-20T16:26:52;16.67;;;3.03;;
18929;SDS011;43305;52.186;5.598;2023-12-20T16:29:19;20.98;;;2.85;;
18929;SDS011;43305;52.186;5.598;2023-12-20T16:31:46;21.27;;;3.40;;